Kezdőlap
METAR-TAF:

METAR-TAF

Repülőterek :

Gválijar, India

földrajzi szélesség: 26-17-36N, földrajzi hosszúság: 78-13-40E, magasság: 188 m

METAR: hiányzik

Idő: 12:51 (07:21 UTC)

Előrejelzés

A jelentés 3 órával és 51 perccel ezelõtt készült, 03:30 UTC
Az előrejelzés 28-én 06 óra UTC és 28-én 18 óra UTC között érvényes
Nyugati szél 7 kt
Látótávolság: 6000 m
Kevés felhő 3000 lábon
28-én 10 óra UTC és 28-én 12 óra UTC között ideiglenes
Észak-északnyugati szél 10 kt széllökések: 20 kt
Látótávolság: 6000 m
Kevés felhő 3000 lábon
Szakadozott felhőzet 10000 lábon

TAF: VIGR 280330Z 2806/2818 27007KT 6000 FEW030 TEMPO 2810/2812 33010G20KT 6000 FEW030 BKN100

Meteorológiai megfigyelések és előrejelzések több, mint 4000 repülőtéren (METAR és TAF jelentéseket).

A térképen piros és sárga pontok jelzik az elérhető meteorológiai állomásokat.

Mozgassa az egeret a pont fölött, hogy megjelenjen az állomás neve.

Azután kattintson az időjárási megfigyelések és előrejelzések megtekintéséhez.

A térkép megváltoztatása: kattintson a fekete keresztel jelölt zöld gombra ráközelítéshez, a vonallal jelölt zöld gombra távolításhoz, vagy a zöld nyilakra a szomszédos térképek eléréséhez.


METAR-TAF: